createdAt,value
2018-09-14T00:00:06.934Z,12.40
2018-09-14T00:02:47.616Z,12.37
2018-09-14T00:05:28.326Z,12.43
2018-09-14T00:08:08.938Z,12.07
2018-09-14T00:10:49.716Z,12.00
2018-09-14T00:13:30.395Z,12.97
2018-09-14T00:16:11.028Z,11.90
2018-09-14T00:18:51.626Z,12.47
2018-09-14T00:21:32.323Z,11.50
2018-09-14T00:24:12.829Z,12.83
2018-09-14T00:26:53.478Z,15.00
2018-09-14T00:29:34.118Z,11.77
2018-09-14T00:32:14.705Z,13.20
2018-09-14T00:34:55.305Z,14.37
2018-09-14T00:37:35.942Z,13.60
2018-09-14T00:40:16.726Z,13.33
2018-09-14T00:42:57.417Z,13.30
2018-09-14T00:45:38.228Z,12.43
2018-09-14T00:48:18.890Z,12.37
2018-09-14T00:50:59.493Z,13.60
2018-09-14T00:53:40.237Z,12.87
2018-09-14T00:56:20.867Z,12.30
2018-09-14T00:59:02.017Z,13.00
2018-09-14T01:01:43.225Z,11.97
2018-09-14T01:04:24.143Z,11.80
2018-09-14T01:07:04.774Z,11.90
2018-09-14T01:09:45.527Z,11.73
2018-09-14T01:12:26.332Z,12.00
2018-09-14T01:15:06.890Z,11.20
2018-09-14T01:17:47.722Z,11.73
2018-09-14T01:20:28.521Z,11.43
2018-09-14T01:23:09.046Z,11.63
2018-09-14T01:25:49.639Z,11.97
2018-09-14T01:28:31.153Z,11.40
2018-09-14T01:31:12.646Z,11.27
2018-09-14T01:33:53.553Z,12.67
2018-09-14T01:36:34.102Z,12.83
2018-09-14T01:39:14.787Z,13.77
2018-09-14T01:41:55.320Z,12.50
2018-09-14T01:44:35.837Z,11.50
2018-09-14T01:47:16.454Z,12.77
2018-09-14T01:49:56.985Z,12.20
2018-09-14T01:52:37.946Z,11.60
2018-09-14T01:55:19.384Z,12.30
2018-09-14T01:58:00.146Z,11.50
2018-09-14T02:00:40.925Z,11.57
2018-09-14T02:03:21.913Z,12.60
2018-09-14T02:06:03.087Z,13.10
2018-09-14T02:08:43.987Z,12.40
2018-09-14T02:11:24.621Z,11.33
2018-09-14T02:14:05.233Z,11.97
2018-09-14T02:16:45.981Z,11.60
2018-09-14T02:19:26.969Z,11.37
2018-09-14T02:22:07.609Z,12.63
2018-09-14T02:24:49.003Z,12.00
2018-09-14T02:27:30.289Z,11.30
2018-09-14T02:30:11.244Z,12.97
2018-09-14T02:32:51.909Z,11.80
2018-09-14T02:35:32.712Z,11.27
2018-09-14T02:38:13.453Z,11.67
2018-09-14T02:40:54.206Z,13.43
2018-09-14T02:43:34.725Z,12.67
2018-09-14T02:46:15.252Z,13.73
2018-09-14T02:48:56.164Z,13.03
2018-09-14T02:51:36.869Z,12.70
2018-09-14T02:54:17.805Z,12.07
2018-09-14T02:56:58.465Z,12.20
2018-09-14T02:59:39.144Z,11.13
2018-09-14T03:02:19.679Z,13.17
2018-09-14T03:05:00.266Z,13.10
2018-09-14T03:07:40.882Z,13.27
2018-09-14T03:10:21.622Z,12.20
2018-09-14T03:13:02.239Z,13.20
2018-09-14T03:15:43.094Z,13.77
2018-09-14T03:18:23.774Z,14.10
2018-09-14T03:21:04.611Z,14.57
2018-09-14T03:23:45.394Z,13.70
2018-09-14T03:26:26.887Z,12.67
2018-09-14T03:29:07.383Z,11.37
2018-09-14T03:31:48.071Z,14.20
2018-09-14T03:34:28.614Z,12.97
2018-09-14T03:37:09.259Z,15.17
2018-09-14T03:39:50.084Z,14.30
2018-09-14T03:42:30.783Z,13.07
2018-09-14T03:45:11.601Z,13.80
2018-09-14T03:47:52.505Z,13.67
2018-09-14T03:50:33.052Z,13.40
2018-09-14T03:53:13.755Z,12.80
2018-09-14T03:55:54.421Z,13.20
2018-09-14T03:58:35.128Z,12.10
2018-09-14T04:01:15.855Z,11.17
2018-09-14T04:03:56.345Z,12.00
2018-09-14T04:06:37.114Z,12.10
2018-09-14T04:09:17.957Z,10.27
2018-09-14T04:11:59.197Z,11.53
2018-09-14T04:14:40.338Z,9.33
2018-09-14T04:17:21.043Z,10.57
2018-09-14T04:20:01.815Z,11.00
2018-09-14T04:22:42.428Z,11.87
2018-09-14T04:25:23.259Z,11.50
2018-09-14T04:28:04.672Z,10.40
2018-09-14T04:30:45.412Z,10.57
2018-09-14T04:33:26.118Z,11.50
2018-09-14T04:36:06.840Z,12.23
2018-09-14T04:38:47.790Z,10.77
2018-09-14T04:41:28.331Z,12.07
2018-09-14T04:44:09.139Z,9.57
2018-09-14T04:46:50.154Z,10.67
2018-09-14T04:49:31.050Z,10.77
2018-09-14T04:52:11.893Z,8.80
2018-09-14T04:54:52.686Z,10.43
2018-09-14T04:57:33.668Z,9.93
2018-09-14T05:00:14.332Z,10.30
2018-09-14T05:02:54.965Z,10.57
2018-09-14T05:05:35.754Z,9.70
2018-09-14T05:08:17.154Z,10.23
2018-09-14T05:10:57.832Z,11.20
2018-09-14T05:13:38.597Z,12.10
2018-09-14T05:16:19.467Z,11.90
2018-09-14T05:19:00.258Z,11.30
2018-09-14T05:21:40.780Z,12.43
2018-09-14T05:24:21.570Z,10.80
2018-09-14T05:27:02.084Z,13.40
2018-09-14T05:29:42.864Z,12.27
2018-09-14T05:32:23.885Z,11.40
2018-09-14T05:35:04.818Z,11.20
2018-09-14T05:37:45.613Z,13.40
2018-09-14T05:40:26.305Z,11.33
2018-09-14T05:43:07.252Z,11.57
2018-09-14T05:45:48.224Z,12.27
2018-09-14T05:48:28.838Z,11.50
2018-09-14T05:51:09.570Z,10.90
2018-09-14T05:53:50.327Z,12.57
2018-09-14T05:56:31.026Z,11.50
2018-09-14T05:59:11.789Z,12.20
2018-09-14T06:01:52.678Z,12.27
2018-09-14T06:04:33.341Z,11.83
2018-09-14T06:07:13.945Z,10.93
2018-09-14T06:09:54.632Z,10.50
2018-09-14T06:12:35.977Z,11.67
2018-09-14T06:15:16.778Z,11.17
2018-09-14T06:17:57.365Z,11.73
2018-09-14T06:20:38.054Z,10.20
2018-09-14T06:23:19.217Z,9.80
2018-09-14T06:26:00.418Z,10.10
2018-09-14T06:28:41.332Z,10.20
2018-09-14T06:31:22.213Z,10.20
2018-09-14T06:34:03.133Z,9.73
2018-09-14T06:36:43.617Z,9.20
2018-09-14T06:39:25.540Z,8.90
2018-09-14T06:42:06.258Z,8.50
2018-09-14T06:44:47.189Z,9.50
2018-09-14T06:47:27.970Z,7.93
2018-09-14T06:50:08.689Z,8.77
2018-09-14T06:52:49.359Z,8.13
2018-09-14T06:55:29.901Z,8.40
2018-09-14T06:58:10.673Z,8.93
2018-09-14T07:00:51.546Z,9.10
2018-09-14T07:03:32.909Z,9.00
2018-09-14T07:06:13.607Z,9.10
2018-09-14T07:08:54.453Z,8.20
2018-09-14T07:11:35.389Z,8.83
2018-09-14T07:14:17.024Z,8.73
2018-09-14T07:16:58.477Z,7.97
2018-09-14T07:19:39.012Z,8.77
2018-09-14T07:22:19.648Z,8.87
2018-09-14T07:25:00.327Z,8.27
2018-09-14T07:27:41.344Z,8.77
2018-09-14T07:30:21.869Z,7.33
2018-09-14T07:33:02.993Z,7.73
2018-09-14T07:35:44.099Z,9.13
2018-09-14T07:38:24.667Z,8.53
2018-09-14T07:41:05.631Z,7.63
2018-09-14T07:43:46.310Z,8.90
2018-09-14T07:46:26.907Z,8.10
2018-09-14T07:49:07.485Z,8.73
2018-09-14T07:51:48.246Z,9.07
2018-09-14T07:54:28.774Z,8.63
2018-09-14T07:57:09.398Z,8.63
2018-09-14T07:59:50.453Z,8.90
2018-09-14T08:02:31.665Z,8.07
2018-09-14T08:05:12.329Z,9.80
2018-09-14T08:07:52.944Z,8.37
2018-09-14T08:10:33.606Z,9.33
2018-09-14T08:13:14.418Z,7.80
2018-09-14T08:15:55.093Z,7.90
2018-09-14T08:18:35.807Z,8.40
2018-09-14T08:21:16.789Z,7.80
2018-09-14T08:23:57.405Z,8.40
2018-09-14T08:26:38.101Z,6.53
2018-09-14T08:29:18.637Z,8.47
2018-09-14T08:31:59.314Z,8.90
2018-09-14T08:34:40.397Z,7.53
2018-09-14T08:37:21.522Z,7.30
2018-09-14T08:40:02.183Z,8.73
2018-09-14T08:42:42.963Z,10.20
2018-09-14T08:45:24.373Z,12.13
2018-09-14T08:48:05.160Z,10.33
2018-09-14T08:50:45.534Z,12.17
2018-09-14T08:53:26.261Z,11.83
2018-09-14T08:56:06.695Z,11.90
2018-09-14T08:58:47.610Z,14.23
2018-09-14T09:01:28.177Z,12.20
2018-09-14T09:04:09.025Z,13.43
2018-09-14T09:06:50.430Z,14.17
2018-09-14T09:09:31.010Z,15.77
2018-09-14T09:12:11.614Z,20.13
2018-09-14T09:14:52.408Z,18.67
2018-09-14T09:17:33.300Z,18.93
2018-09-14T09:20:13.889Z,21.27
2018-09-14T09:22:54.725Z,23.00
2018-09-14T09:25:35.309Z,20.50
2018-09-14T09:28:15.826Z,18.87
2018-09-14T09:30:56.807Z,23.80
2018-09-14T09:33:37.752Z,22.03
2018-09-14T09:36:18.614Z,25.00
2018-09-14T09:38:59.426Z,21.37
2018-09-14T09:41:40.971Z,21.27
2018-09-14T09:44:21.949Z,25.23
2018-09-14T09:47:02.832Z,19.30
2018-09-14T09:49:43.663Z,16.80
2018-09-14T09:52:24.309Z,15.07
2018-09-14T09:55:05.082Z,21.80
2018-09-14T09:57:45.683Z,18.67
2018-09-14T10:00:31.523Z,16.63
2018-09-14T10:03:18.063Z,15.13
2018-09-14T10:06:04.840Z,14.47
2018-09-14T10:08:46.104Z,11.90
2018-09-14T10:11:27.441Z,14.70
2018-09-14T10:14:08.439Z,13.70
2018-09-14T10:16:49.089Z,13.00
2018-09-14T10:19:29.847Z,13.53
2018-09-14T10:22:10.625Z,12.77
2018-09-14T10:24:51.258Z,12.10
2018-09-14T10:27:32.069Z,11.43
2018-09-14T10:30:12.789Z,11.37
2018-09-14T10:32:53.481Z,11.50
2018-09-14T10:35:34.113Z,8.90
2018-09-14T10:38:14.968Z,9.43
2018-09-14T10:40:55.691Z,7.80
2018-09-14T10:43:36.542Z,8.87
2018-09-14T10:46:17.195Z,8.33
2018-09-14T10:48:57.872Z,8.50
2018-09-14T10:51:38.376Z,8.23
2018-09-14T10:54:19.787Z,7.90
2018-09-14T10:57:00.717Z,8.27
2018-09-14T10:59:41.246Z,7.87
2018-09-14T11:02:21.969Z,7.60
2018-09-14T11:05:02.717Z,8.03
2018-09-14T11:07:43.448Z,7.73
2018-09-14T11:10:24.128Z,8.60
2018-09-14T11:13:04.749Z,9.67
2018-09-14T11:15:45.620Z,10.93
2018-09-14T11:18:26.335Z,9.33
2018-09-14T11:21:06.869Z,9.30
2018-09-14T11:23:48.128Z,9.33
2018-09-14T11:26:29.090Z,7.83
2018-09-14T11:29:09.666Z,9.37
2018-09-14T11:31:50.249Z,8.20
2018-09-14T11:34:30.791Z,9.87
2018-09-14T11:37:11.475Z,9.90
2018-09-14T11:39:52.493Z,8.20
2018-09-14T11:42:33.019Z,9.20
2018-09-14T11:45:13.615Z,9.50
2018-09-14T11:47:54.430Z,9.37
2018-09-14T11:50:35.159Z,9.17
2018-09-14T11:53:15.856Z,8.37
2018-09-14T11:55:56.429Z,9.50
2018-09-14T11:58:37.318Z,10.57
2018-09-14T12:01:18.912Z,10.33
2018-09-14T12:04:00.746Z,10.30
2018-09-14T12:06:42.165Z,9.43
2018-09-14T12:09:22.784Z,10.30
2018-09-14T12:12:03.660Z,9.03
2018-09-14T12:14:44.257Z,9.53
2018-09-14T12:17:24.938Z,11.00
2018-09-14T12:20:05.517Z,9.37
2018-09-14T12:22:46.178Z,10.53
2018-09-14T12:25:27.197Z,11.07
2018-09-14T12:28:08.408Z,10.77
2018-09-14T12:30:49.455Z,10.27
2018-09-14T12:33:30.668Z,10.33
2018-09-14T12:36:11.768Z,9.40
2018-09-14T12:38:52.358Z,9.10
2018-09-14T12:41:33.033Z,10.43
2018-09-14T12:44:13.800Z,11.37
2018-09-14T12:46:54.358Z,9.70
2018-09-14T12:49:35.418Z,9.10
2018-09-14T12:52:16.685Z,9.13
2018-09-14T12:54:57.416Z,10.87
2018-09-14T12:57:39.225Z,10.50
2018-09-14T13:00:19.754Z,10.83
2018-09-14T13:03:00.505Z,10.70
2018-09-14T13:05:41.113Z,11.80
2018-09-14T13:08:21.823Z,9.80
2018-09-14T13:11:02.435Z,9.00
2018-09-14T13:13:42.938Z,9.80
2018-09-14T13:16:23.622Z,9.50
2018-09-14T13:19:04.398Z,9.80
2018-09-14T13:21:45.477Z,10.60
2018-09-14T13:24:27.246Z,10.70
2018-09-14T13:27:08.487Z,11.83
2018-09-14T13:29:49.258Z,13.00
2018-09-14T13:32:29.710Z,12.40
2018-09-14T13:35:10.427Z,18.20
2018-09-14T13:37:51.464Z,13.40
2018-09-14T13:40:32.706Z,13.70
2018-09-14T13:43:13.443Z,8.57
2018-09-14T13:45:54.241Z,7.37
2018-09-14T13:48:34.955Z,7.90
2018-09-14T13:51:16.613Z,5.40
2018-09-14T13:53:57.562Z,5.83
2018-09-14T13:56:38.950Z,5.30
2018-09-14T13:59:19.674Z,5.17
2018-09-14T14:02:00.704Z,4.57
2018-09-14T14:04:41.816Z,5.20
2018-09-14T14:07:22.441Z,4.60
2018-09-14T14:10:03.321Z,4.70
2018-09-14T14:12:43.826Z,4.40
2018-09-14T14:15:24.363Z,4.90
2018-09-14T14:18:05.273Z,5.23
2018-09-14T14:20:45.856Z,5.00
2018-09-14T14:23:26.585Z,5.30
2018-09-14T14:26:07.292Z,6.20
2018-09-14T14:28:48.174Z,6.03
2018-09-14T14:31:28.713Z,5.87
2018-09-14T14:34:09.388Z,6.67
2018-09-14T14:36:50.049Z,5.90
2018-09-14T14:39:30.836Z,6.87
2018-09-14T14:42:11.353Z,6.80
2018-09-14T14:44:52.013Z,7.50
2018-09-14T14:47:32.545Z,7.67
2018-09-14T14:50:13.236Z,8.07
2018-09-14T14:52:54.308Z,7.60
2018-09-14T14:55:35.800Z,8.57
2018-09-14T14:58:16.464Z,8.57
2018-09-14T15:00:57.106Z,7.80
2018-09-14T15:03:37.809Z,8.30
2018-09-14T15:06:18.508Z,8.57
2018-09-14T15:08:59.249Z,8.60
2018-09-14T15:11:40.226Z,7.33
2018-09-14T15:14:20.886Z,7.50
2018-09-14T15:17:01.566Z,8.77
2018-09-14T15:19:42.226Z,7.77
2018-09-14T15:22:22.953Z,7.17
2018-09-14T15:25:03.630Z,6.57
2018-09-14T15:27:44.242Z,6.97
2018-09-14T15:30:24.861Z,6.70
2018-09-14T15:33:05.457Z,7.17
2018-09-14T15:35:46.162Z,6.63
2018-09-14T15:38:26.752Z,6.33
2018-09-14T15:41:07.170Z,6.43
2018-09-14T15:43:48.080Z,5.90
2018-09-14T15:46:28.750Z,5.50
2018-09-14T15:49:09.400Z,6.40
2018-09-14T15:51:50.121Z,6.70
2018-09-14T15:54:30.654Z,5.90
2018-09-14T15:57:11.333Z,7.07
2018-09-14T15:59:51.929Z,6.67
2018-09-14T16:02:32.600Z,5.93
2018-09-14T16:05:13.196Z,6.20
2018-09-14T16:07:54.009Z,6.30
2018-09-14T16:10:34.640Z,6.60
2018-09-14T16:13:15.214Z,6.53
2018-09-14T16:15:55.801Z,6.63
2018-09-14T16:18:36.301Z,5.70
2018-09-14T16:21:16.918Z,6.80
2018-09-14T16:23:57.658Z,6.93
2018-09-14T16:26:39.153Z,6.17
2018-09-14T16:29:19.767Z,6.53
2018-09-14T16:32:00.446Z,7.00
2018-09-14T16:34:41.087Z,7.30
2018-09-14T16:37:21.812Z,5.80
2018-09-14T16:40:02.386Z,5.77
2018-09-14T16:42:43.144Z,6.57
2018-09-14T16:45:23.849Z,6.93
2018-09-14T16:48:04.402Z,6.50
2018-09-14T16:50:44.934Z,7.00
2018-09-14T16:53:25.557Z,6.33
2018-09-14T16:56:06.252Z,7.30
2018-09-14T16:58:47.396Z,7.17
2018-09-14T17:01:28.360Z,7.23
2018-09-14T17:04:08.849Z,7.00
2018-09-14T17:06:49.621Z,7.37
2018-09-14T17:09:31.062Z,6.60
2018-09-14T17:12:11.787Z,7.80
2018-09-14T17:14:52.442Z,6.23
2018-09-14T17:17:33.030Z,7.50
2018-09-14T17:20:14.342Z,7.47
2018-09-14T17:22:55.140Z,8.47
2018-09-14T17:25:35.534Z,7.57
2018-09-14T17:28:16.278Z,7.87
2018-09-14T17:30:56.941Z,7.07
2018-09-14T17:33:37.457Z,7.30
2018-09-14T17:36:18.100Z,7.87
2018-09-14T17:38:59.465Z,7.43
2018-09-14T17:41:40.285Z,7.30
2018-09-14T17:44:21.811Z,7.30
2018-09-14T17:47:02.392Z,8.67
2018-09-14T17:49:42.946Z,8.03
2018-09-14T17:52:23.688Z,7.23
2018-09-14T17:55:04.397Z,7.60
2018-09-14T17:57:45.089Z,8.70
2018-09-14T18:00:25.681Z,8.57
2018-09-14T18:03:07.151Z,8.03
2018-09-14T18:05:47.742Z,9.00
2018-09-14T18:08:28.374Z,9.07
2018-09-14T18:11:09.095Z,8.30
2018-09-14T18:13:49.619Z,8.73
2018-09-14T18:16:30.324Z,8.30
2018-09-14T18:19:11.037Z,8.97
2018-09-14T18:21:52.208Z,8.90
2018-09-14T18:24:33.249Z,9.30
2018-09-14T18:27:14.235Z,8.40
2018-09-14T18:29:55.381Z,8.63
2018-09-14T18:32:35.958Z,7.97
2018-09-14T18:35:17.385Z,8.50
2018-09-14T18:37:58.090Z,9.73
2018-09-14T18:40:38.705Z,8.37
2018-09-14T18:43:19.313Z,9.10
2018-09-14T18:46:00.058Z,9.40
2018-09-14T18:48:40.887Z,9.57
2018-09-14T18:51:21.456Z,9.13
2018-09-14T18:54:02.354Z,9.60
2018-09-14T18:56:43.005Z,8.83
2018-09-14T18:59:23.712Z,9.30
2018-09-14T19:02:04.354Z,10.80
2018-09-14T19:04:44.934Z,9.13
2018-09-14T19:07:26.274Z,9.00
2018-09-14T19:10:07.835Z,8.67
2018-09-14T19:12:48.442Z,8.90
2018-09-14T19:15:29.818Z,9.53
2018-09-14T19:18:10.761Z,9.50
2018-09-14T19:20:51.274Z,9.57
2018-09-14T19:23:32.320Z,11.10
2018-09-14T19:26:13.068Z,10.47
2018-09-14T19:28:53.685Z,9.10
2018-09-14T19:31:34.642Z,11.30
2018-09-14T19:34:15.342Z,11.20
2018-09-14T19:36:56.137Z,10.47
2018-09-14T19:39:37.073Z,10.40
2018-09-14T19:42:17.773Z,10.50
2018-09-14T19:44:59.219Z,9.10
2018-09-14T19:47:40.029Z,10.10
2018-09-14T19:50:20.917Z,10.10
2018-09-14T19:53:01.584Z,10.23
2018-09-14T19:55:42.089Z,9.80
2018-09-14T19:58:22.894Z,10.00
2018-09-14T20:01:03.614Z,9.70
2018-09-14T20:03:44.566Z,10.10
2018-09-14T20:06:25.280Z,10.90
2018-09-14T20:09:06.189Z,9.90
2018-09-14T20:11:46.785Z,10.93
2018-09-14T20:14:27.533Z,10.20
2018-09-14T20:17:09.013Z,11.17
2018-09-14T20:19:50.442Z,9.23
2018-09-14T20:22:31.097Z,10.67
2018-09-14T20:25:11.825Z,9.97
2018-09-14T20:27:52.673Z,9.30
2018-09-14T20:30:33.852Z,8.77
2018-09-14T20:33:14.659Z,9.33
2018-09-14T20:35:55.128Z,9.20
2018-09-14T20:38:35.919Z,10.43
2018-09-14T20:41:16.509Z,9.17
2018-09-14T20:43:57.246Z,9.43
2018-09-14T20:46:38.270Z,9.53
2018-09-14T20:49:19.161Z,9.83
2018-09-14T20:51:59.825Z,9.50
2018-09-14T20:54:40.382Z,9.70
2018-09-14T20:57:21.175Z,10.97
2018-09-14T21:00:01.917Z,9.73
2018-09-14T21:02:42.768Z,9.50
2018-09-14T21:05:23.963Z,9.43
2018-09-14T21:08:05.454Z,8.60
2018-09-14T21:10:46.705Z,10.00
2018-09-14T21:13:28.366Z,9.87
2018-09-14T21:16:09.043Z,10.10
2018-09-14T21:18:50.061Z,9.70
2018-09-14T21:21:30.824Z,10.03
2018-09-14T21:24:11.370Z,11.07
2018-09-14T21:26:53.208Z,11.10
2018-09-14T21:29:34.037Z,10.90
2018-09-14T21:32:14.964Z,11.43
2018-09-14T21:34:55.481Z,11.17
2018-09-14T21:37:36.681Z,10.23
2018-09-14T21:40:17.474Z,11.30
2018-09-14T21:42:58.009Z,11.93
2018-09-14T21:45:38.539Z,11.97
2018-09-14T21:48:19.366Z,11.97
2018-09-14T21:50:59.861Z,9.73
2018-09-14T21:53:40.542Z,10.30
2018-09-14T21:56:21.105Z,11.37
2018-09-14T21:59:01.871Z,11.70
2018-09-14T22:01:42.612Z,12.27
2018-09-14T22:04:23.264Z,12.10
2018-09-14T22:07:03.889Z,11.27
2018-09-14T22:09:44.570Z,11.50
2018-09-14T22:12:25.260Z,10.30
2018-09-14T22:15:05.758Z,10.80
2018-09-14T22:17:46.446Z,12.30
2018-09-14T22:20:27.117Z,11.30
2018-09-14T22:23:07.872Z,11.43
2018-09-14T22:25:48.774Z,10.40
2018-09-14T22:28:29.462Z,11.13
2018-09-14T22:31:10.229Z,11.27
2018-09-14T22:33:50.853Z,10.47
2018-09-14T22:36:31.427Z,9.50
2018-09-14T22:39:13.520Z,10.63
2018-09-14T22:41:54.076Z,9.30
2018-09-14T22:44:34.721Z,9.47
2018-09-14T22:47:15.406Z,11.77
2018-09-14T22:49:55.900Z,10.27
2018-09-14T22:52:36.606Z,10.23
2018-09-14T22:55:17.222Z,10.50
2018-09-14T22:57:57.977Z,10.80
2018-09-14T23:00:44.032Z,9.50
2018-09-14T23:03:25.451Z,10.90
2018-09-14T23:06:05.998Z,10.70
2018-09-14T23:08:46.833Z,10.40
2018-09-14T23:11:27.506Z,10.77
2018-09-14T23:14:08.026Z,11.70
2018-09-14T23:16:48.776Z,10.93
2018-09-14T23:19:29.685Z,9.97
2018-09-14T23:22:10.447Z,10.10
2018-09-14T23:24:51.275Z,10.53
2018-09-14T23:27:31.813Z,9.90
2018-09-14T23:30:13.167Z,10.70
2018-09-14T23:32:54.050Z,11.97
2018-09-14T23:35:34.614Z,10.87
2018-09-14T23:38:15.174Z,9.10
2018-09-14T23:40:55.848Z,10.47
2018-09-14T23:43:36.505Z,10.10
2018-09-14T23:46:17.127Z,9.20
2018-09-14T23:48:58.008Z,10.60
2018-09-14T23:51:38.818Z,10.40
2018-09-14T23:54:19.604Z,10.97
2018-09-14T23:57:00.290Z,11.83
2018-09-14T23:59:41.017Z,10.27
